1931 NOT_NAMED (1931019S14129)


IBTrACS version v04r00. Visit IBTrACS website for data access.
Please direct all questions to the IBTrACS Q and A forum

Storm track - Intensity - Wind Radii - Intensity Data - Source Data - All data

Summary Information

Storm ID 1931019S14129
Start Jan 18 23Z
Landfall Jan 19 18Z, Jan 23 15Z
End Jan 25 01Z
ATCF IDs
Track status Best track data.

Storm track plot

Map of storm track

Intensity plots

No Intensity information for this storm


Radial wind information

No radial wind information for this storm


Position and Intensity Table

BASIN ISO_TIME_________ NATURE LAT LON
degrees north degrees east
SI 1931-01-18 23:00:00 NR -14.10 129.20
SI 1931-01-19 00:00:00 NR -14.10 129.10
SI 03:00:00 NR -14.10 128.82
SI 06:00:00 NR -14.11 128.54
SI 09:00:00 NR -14.10 128.27
SI 11:00:00 NR -14.10 128.10
SI 12:00:00 NR -14.10 128.02
SI 15:00:00 NR -14.09 127.78
SI 18:00:00 NR -14.08 127.53
SI 21:00:00 NR -14.09 127.23
SI 23:00:00 NR -14.10 127.00
SI 23:30:00 NR -14.28 126.79
SI 1931-01-20 00:00:00 NR -14.40 126.63
SI 03:00:00 NR -14.48 126.19
SI 06:00:00 NR -14.53 125.78
SI 09:00:00 NR -14.54 125.37
SI 11:00:00 NR -14.55 125.10
SI 12:00:00 NR -14.56 124.96
SI 15:00:00 NR -14.61 124.53
SI 18:00:00 NR -14.67 124.10
SI 21:00:00 NR -14.74 123.67
SI 23:00:00 NR -14.79 123.40
SI 1931-01-21 00:00:00 NR -14.81 123.27
SI 01:00:00 NR -14.83 123.14
SI 03:00:00 NR -14.86 122.87
SI 06:00:00 NR -14.91 122.46
SI 09:00:00 NR -14.99 122.05
SI 11:00:00 NR -15.08 121.78
SI 12:00:00 NR -15.14 121.63
SI 15:00:00 NR -15.37 121.21
SI 18:00:00 NR -15.65 120.85
SI 20:00:00 NR -15.87 120.67
SI 21:00:00 NR -15.99 120.59
SI 23:00:00 NR -16.23 120.48
SI 1931-01-22 00:00:00 NR -16.33 120.45
SI 01:00:00 NR -16.42 120.44
SI 03:00:00 NR -16.53 120.48
SI 06:00:00 NR -16.57 120.65
SI 09:00:00 NR -16.51 120.91
SI 11:00:00 NR -16.45 121.11
SI 12:00:00 NR -16.42 121.20
SI 15:00:00 NR -16.34 121.48
SI 16:00:00 NR -16.32 121.57
SI 18:00:00 NR -16.32 121.72
SI 21:00:00 NR -16.34 121.93
SI 23:00:00 NR -16.37 122.05
SI 1931-01-23 00:00:00 NR -16.39 122.10
SI 01:00:00 NR -16.42 122.15
SI 03:00:00 NR -16.47 122.24
SI 06:00:00 NR -16.58 122.33
SI 07:00:00 NR -16.61 122.36
SI 09:00:00 NR -16.68 122.42
SI 11:00:00 NR -16.75 122.47
SI 12:00:00 NR -16.78 122.49
SI 15:00:00 NR -16.87 122.55
SI 18:00:00 NR -16.97 122.60
SI 21:00:00 NR -17.07 122.63
SI 23:00:00 NR -17.13 122.65
SI 1931-01-24 00:00:00 NR -17.17 122.65
SI 01:00:00 NR -17.20 122.66
SI 03:00:00 NR -17.27 122.67
SI 06:00:00 NR -17.38 122.68
SI 09:00:00 NR -17.49 122.68
SI 11:00:00 NR -17.57 122.68
SI 12:00:00 NR -17.61 122.68
SI 15:00:00 NR -17.73 122.68
SI 18:00:00 NR -17.84 122.63
SI 21:00:00 NR -17.94 122.58
SI 23:00:00 NR -18.00 122.53
SI 1931-01-25 00:00:00 NR -17.97 122.39
SI 01:00:00 NR -18.00 122.40

Source Information

Agency Information
USA
TOKYO
CMA
HKO
NEWDELHI
REUNION
BOM IDCKMSTM0S.csv:Line=750:unnamed
NADI
WELLINGTON
DS824
TD9636 cons_worldwide_trop_cyclone_18710101-19891231-006:Line=1840
TD9635
NEUMANN
MLC

All available IBTrACS Data

SEASON BASIN SUBBASIN ISO_TIME_________ NATURE LAT LON WMO AGENCY DIST2LAND LANDFALL IFLAG USA SSHS BOM LAT BOM LON TD9636 LAT TD9636 LON TD9636 STAGE STORM SPEED STORM DIR
Year degrees north degrees east km km 1 degrees north degrees east degrees north degrees east kts degrees
1931 SI WA 1931-01-18 23:00:00 NR -14.10 129.20 31 31 __________O___ -1 -14.10 129.20 7 6 269
1931 SI WA 1931-01-19 00:00:00 NR -14.10 129.10 39 39 __________P___ -1 -14.10 129.10 7 6 269
1931 SI WA 03:00:00 NR -14.10 128.82 68 68 __________P___ -1 -14.10 128.82 7 6 270
1931 SI WA 06:00:00 NR -14.11 128.54 74 62 __________P___ -1 -14.11 128.54 7 5 270
1931 SI WA 09:00:00 NR -14.10 128.27 62 44 __________P___ -1 -14.10 128.27 7 5 271
1931 SI WA 11:00:00 NR -14.10 128.10 44 34 __________O___ -1 -14.10 128.10 7 5 271
1931 SI WA 12:00:00 NR -14.10 128.02 34 15 __________P___ -1 -14.10 128.02 7 5 272
1931 SI WA 15:00:00 NR -14.09 127.78 15 0 __________P___ -1 -14.09 127.78 7 5 272
1931 SI WA 18:00:00 NR -14.08 127.53 0 0 __________P___ -1 -14.08 127.53 7 5 270
1931 SI WA 21:00:00 NR -14.09 127.23 0 0 __________P___ -1 -14.09 127.23 7 6 268
1931 SI WA 23:00:00 NR -14.10 127.00 0 0 __________O___ -1 -14.10 127.00 7 11 246
1931 SI WA 23:30:00 NR -14.28 126.79 bom 0 0 ______O___P___ -1 -15.00 126.20 -14.10 126.93 7 28 230
1931 SI WA 1931-01-20 00:00:00 NR -14.40 126.63 0 0 ______P___P___ -1 -14.99 126.16 -14.10 126.86 7 10 251
1931 SI WA 03:00:00 NR -14.48 126.19 0 0 ______P___P___ -1 -14.95 125.91 -14.12 126.40 7 8 261
1931 SI WA 06:00:00 NR -14.53 125.78 10 0 ______P___P___ -1 -14.90 125.66 -14.16 125.89 7 8 266
1931 SI WA 09:00:00 NR -14.54 125.37 11 11 ______P___P___ -1 -14.84 125.39 -14.23 125.36 7 8 268
1931 SI WA 11:00:00 NR -14.55 125.10 bom 15 10 ______O___O___ -1 -14.80 125.20 -14.30 125.00 7 8 267
1931 SI WA 12:00:00 NR -14.56 124.96 21 21 ______P___P___ -1 -14.78 125.10 -14.35 124.82 7 8 264
1931 SI WA 15:00:00 NR -14.61 124.53 74 74 ______P___P___ -1 -14.70 124.79 -14.52 124.27 7 8 263
1931 SI WA 18:00:00 NR -14.67 124.10 93 93 ______P___P___ -1 -14.63 124.44 -14.71 123.75 7 8 261
1931 SI WA 21:00:00 NR -14.74 123.67 125 124 ______P___P___ -1 -14.59 124.07 -14.89 123.27 7 8 260
1931 SI WA 23:00:00 NR -14.79 123.40 139 139 ______P___O___ -1 -14.58 123.79 -15.00 123.00 7 8 260
1931 SI WA 1931-01-21 00:00:00 NR -14.81 123.27 148 148 ______P___P___ -1 -14.59 123.65 -15.03 122.89 7 7 261
1931 SI WA 01:00:00 NR -14.83 123.14 bom 165 165 ______O___P___ -1 -14.60 123.50 -15.06 122.79 7 8 263
1931 SI WA 03:00:00 NR -14.86 122.87 168 168 ______P___P___ -1 -14.61 123.13 -15.10 122.61 7 8 263
1931 SI WA 06:00:00 NR -14.91 122.46 184 183 ______P___P___ -1 -14.66 122.52 -15.16 122.40 7 8 260
1931 SI WA 09:00:00 NR -14.99 122.05 193 193 ______P___P___ -1 -14.76 121.87 -15.23 122.22 7 8 256
1931 SI WA 11:00:00 NR -15.08 121.78 196 196 ______P___O___ -1 -14.86 121.45 -15.30 122.10 7 9 250
1931 SI WA 12:00:00 NR -15.14 121.63 209 201 ______P___P___ -1 -14.92 121.25 -15.36 122.01 7 9 242
1931 SI WA 15:00:00 NR -15.37 121.21 216 216 ______P___P___ -1 -15.17 120.68 -15.57 121.73 7 9 236
1931 SI WA 18:00:00 NR -15.65 120.85 223 216 ______P___P___ -1 -15.51 120.23 -15.80 121.47 7 9 226
1931 SI WA 20:00:00 NR -15.87 120.67 bom 217 217 ______O___P___ -1 -15.80 120.00 -15.94 121.33 7 8 216
1931 SI WA 21:00:00 NR -15.99 120.59 219 212 ______P___P___ -1 -15.98 119.91 -16.00 121.28 7 8 206
1931 SI WA 23:00:00 NR -16.23 120.48 216 211 ______P___O___ -1 -16.36 119.76 -16.10 121.20 7 7 201
1931 SI WA 1931-01-22 00:00:00 NR -16.33 120.45 211 207 ______P___P___ -1 -16.54 119.72 -16.13 121.19 7 6 193
1931 SI WA 01:00:00 NR -16.42 120.44 bom 216 201 ______O___P___ -1 -16.70 119.70 -16.15 121.19 7 4 174
1931 SI WA 03:00:00 NR -16.53 120.48 201 187 ______P___P___ -1 -16.89 119.74 -16.17 121.22 7 3 126
1931 SI WA 06:00:00 NR -16.57 120.65 187 163 ______P___P___ -1 -16.97 119.96 -16.16 121.33 7 4 88
1931 SI WA 09:00:00 NR -16.51 120.91 163 144 ______P___P___ -1 -16.90 120.33 -16.13 121.49 7 5 76
1931 SI WA 11:00:00 NR -16.45 121.11 144 140 ______P___O___ -1 -16.81 120.62 -16.10 121.60 7 6 72
1931 SI WA 12:00:00 NR -16.42 121.20 140 123 ______P___P___ -1 -16.76 120.76 -16.09 121.64 7 6 72
1931 SI WA 15:00:00 NR -16.34 121.48 123 116 ______P___P___ -1 -16.63 121.18 -16.05 121.78 7 5 73
1931 SI WA 16:00:00 NR -16.32 121.57 bom 116 108 ______O___P___ -1 -16.60 121.30 -16.03 121.83 7 5 85
1931 SI WA 18:00:00 NR -16.32 121.72 108 92 ______P___P___ -1 -16.63 121.49 -16.01 121.94 7 4 94
1931 SI WA 21:00:00 NR -16.34 121.93 92 77 ______P___P___ -1 -16.69 121.76 -15.99 122.09 7 4 99
1931 SI WA 23:00:00 NR -16.37 122.05 77 70 ______P___O___ -1 -16.74 121.90 -16.00 122.20 7 4 107
1931 SI WA 1931-01-23 00:00:00 NR -16.39 122.10 70 70 ______P___P___ -1 -16.77 121.95 -16.01 122.25 7 3 114
1931 SI WA 01:00:00 NR -16.42 122.15 bom 63 55 ______O___P___ -1 -16.80 122.00 -16.03 122.31 7 3 122
1931 SI WA 03:00:00 NR -16.47 122.24 55 39 ______P___P___ -1 -16.86 122.06 -16.08 122.42 7 3 133
1931 SI WA 06:00:00 NR -16.58 122.33 39 33 ______P___P___ -1 -16.97 122.10 -16.18 122.57 7 3 140
1931 SI WA 07:00:00 NR -16.61 122.36 bom 33 24 ______O___P___ -1 -17.00 122.10 -16.22 122.62 7 3 142
1931 SI WA 09:00:00 NR -16.68 122.42 24 21 ______P___P___ -1 -17.05 122.12 -16.31 122.72 7 3 141
1931 SI WA 11:00:00 NR -16.75 122.47 21 11 ______P___O___ -1 -17.09 122.14 -16.40 122.80 7 2 145
1931 SI WA 12:00:00 NR -16.78 122.49 11 0 ______P___P___ -1 -17.11 122.15 -16.44 122.84 7 2 148
1931 SI WA 15:00:00 NR -16.87 122.55 0 0 ______P___P___ -1 -17.16 122.17 -16.58 122.94 7 2 153
1931 SI WA 18:00:00 NR -16.97 122.60 0 0 ______P___P___ -1 -17.20 122.18 -16.74 123.02 7 2 159
1931 SI WA 21:00:00 NR -17.07 122.63 0 0 ______P___P___ -1 -17.24 122.19 -16.89 123.07 7 2 170
1931 SI WA 23:00:00 NR -17.13 122.65 0 0 ______P___O___ -1 -17.27 122.19 -17.00 123.10 7 2 0
1931 SI WA 1931-01-24 00:00:00 NR -17.17 122.65 0 0 ______P___P___ -1 -17.28 122.20 -17.05 123.11 7 2 165
1931 SI WA 01:00:00 NR -17.20 122.66 bom 0 0 ______O___P___ -1 -17.30 122.20 -17.10 123.12 7 2 168
1931 SI WA 03:00:00 NR -17.27 122.67 0 0 ______P___P___ -1 -17.34 122.21 -17.20 123.13 7 2 0
1931 SI WA 06:00:00 NR -17.38 122.68 0 0 ______P___P___ -1 -17.40 122.23 -17.35 123.13 7 2 0
1931 SI WA 09:00:00 NR -17.49 122.68 0 0 ______P___P___ -1 -17.48 122.25 -17.50 123.11 7 2 0
1931 SI WA 11:00:00 NR -17.57 122.68 0 0 ______P___O___ -1 -17.54 122.26 -17.60 123.10 7 2 173
1931 SI WA 12:00:00 NR -17.61 122.68 0 0 ______P___P___ -1 -17.57 122.27 -17.65 123.09 7 2 171
1931 SI WA 15:00:00 NR -17.73 122.68 0 0 ______P___P___ -1 -17.66 122.30 -17.80 123.07 7 2 188
1931 SI WA 18:00:00 NR -17.84 122.63 0 0 ______P___P___ -1 -17.76 122.33 -17.95 123.04 7 2 204
1931 SI WA 21:00:00 NR -17.94 122.58 0 0 ______P___P___ -1 -17.86 122.36 -18.10 123.02 7 2 212
1931 SI WA 23:00:00 NR -18.00 122.53 0 0 ______P___O___ -1 -17.93 122.38 -18.20 123.00 7 4 262
1931 SI WA 1931-01-25 00:00:00 NR -17.97 122.39 0 0 ______P_______ -1 -17.97 122.39 7 4 269
1931 SI WA 01:00:00 NR -18.00 122.40 bom 0 ______O_______ -1 -18.00 122.40 7 2 152